Time;durP1;ratioP1;P1;durP2;ratioP2;P2;SDS_P1;SDS_P2;PMS_P1;PMS_P2;Temp;Humidity;BMP_temperature;BMP_pressure;BME280_temperature;BME280_humidity;BME280_pressure;Samples;Min_cycle;Max_cycle;Signal;HPM_P1;HPM_P2
2021/10/30 00:01:12;;;;;;;5.40;2.20;;;;;;;;;;4994197;28;20366;-70
2021/10/30 00:03:38;;;;;;;3.53;1.77;;;;;;;;;;4995456;28;20043;-70
2021/10/30 00:06:04;;;;;;;5.55;1.98;;;;;;;;;;4995661;28;20032;-70
2021/10/30 00:08:30;;;;;;;6.82;2.22;;;;;;;;;;4994670;28;20363;-69
2021/10/30 00:11:00;;;;;;;3.97;1.90;;;;;;;;;;4996099;28;20478;-69
2021/10/30 00:13:26;;;;;;;6.25;2.00;;;;;;;;;;4995253;28;20030;-69
2021/10/30 00:15:52;;;;;;;2.22;1.55;;;;;;;;;;4996072;28;20125;-70
2021/10/30 00:18:18;;;;;;;1.98;1.73;;;;;;;;;;4996342;28;20526;-69
2021/10/30 00:20:44;;;;;;;6.85;2.03;;;;;;;;;;4995955;28;20064;-68
2021/10/30 00:23:10;;;;;;;4.47;1.95;;;;;;;;;;4995716;28;20026;-69
2021/10/30 00:25:36;;;;;;;3.70;1.77;;;;;;;;;;4996241;28;20030;-69
2021/10/30 00:28:02;;;;;;;4.03;2.33;;;;;;;;;;4993926;28;20033;-69
2021/10/30 00:30:28;;;;;;;5.35;2.53;;;;;;;;;;4995178;28;20517;-69
2021/10/30 00:32:54;;;;;;;14.38;1.98;;;;;;;;;;4995376;28;20346;-70
2021/10/30 00:35:20;;;;;;;10.90;2.30;;;;;;;;;;4995117;28;20026;-69
2021/10/30 00:37:46;;;;;;;8.20;1.88;;;;;;;;;;4994239;28;20062;-68
2021/10/30 00:40:12;;;;;;;11.10;1.83;;;;;;;;;;4995006;28;20374;-69
2021/10/30 00:42:41;;;;;;;4.82;1.85;;;;;;;;;;4993608;28;20022;-69
2021/10/30 00:45:08;;;;;;;7.85;2.00;;;;;;;;;;4994834;28;20022;-70
2021/10/30 00:47:34;;;;;;;3.63;1.73;;;;;;;;;;4995047;28;20089;-69
2021/10/30 00:50:00;;;;;;;8.07;2.00;;;;;;;;;;4993506;28;20054;-69
2021/10/30 00:52:27;;;;;;;3.92;1.73;;;;;;;;;;4994814;28;20034;-69
2021/10/30 00:54:54;;;;;;;5.13;1.58;;;;;;;;;;4993943;28;20022;-69
2021/10/30 00:57:21;;;;;;;1.90;1.50;;;;;;;;;;4994697;28;20478;-69
2021/10/30 00:59:47;;;;;;;2.30;1.77;;;;;;;;;;4994591;28;20049;-69
2021/10/30 01:02:13;;;;;;;3.85;1.60;;;;;;;;;;4994570;28;20021;-69
2021/10/30 01:04:39;;;;;;;3.55;1.80;;;;;;;;;;4992991;28;20058;-70
2021/10/30 01:07:06;;;;;;;9.27;1.90;;;;;;;;;;4994363;28;20053;-69
2021/10/30 01:09:32;;;;;;;3.25;1.80;;;;;;;;;;4994431;28;20106;-69
2021/10/30 01:11:58;;;;;;;2.50;1.70;;;;;;;;;;4994204;28;20386;-69
2021/10/30 01:14:25;;;;;;;4.25;1.67;;;;;;;;;;4994121;28;20477;-69
2021/10/30 01:16:57;;;;;;;5.93;1.90;;;;;;;;;;4994224;28;20030;-69
2021/10/30 01:19:23;;;;;;;6.78;2.05;;;;;;;;;;4994393;28;20101;-69
2021/10/30 01:21:49;;;;;;;3.92;1.85;;;;;;;;;;4993238;28;20078;-69
2021/10/30 01:24:15;;;;;;;4.20;1.80;;;;;;;;;;4994335;28;20029;-68
2021/10/30 01:26:41;;;;;;;6.47;2.22;;;;;;;;;;4994182;28;20063;-69
2021/10/30 01:29:07;;;;;;;6.80;1.83;;;;;;;;;;4994239;28;20029;-69
2021/10/30 01:31:34;;;;;;;6.50;1.73;;;;;;;;;;4994530;28;20023;-71
2021/10/30 01:34:03;;;;;;;2.67;2.05;;;;;;;;;;4994347;28;20022;-71
2021/10/30 01:36:31;;;;;;;7.55;1.75;;;;;;;;;;4995265;28;20031;-70
2021/10/30 01:38:57;;;;;;;6.18;1.80;;;;;;;;;;4995507;28;20404;-71
2021/10/30 01:41:24;;;;;;;2.92;1.77;;;;;;;;;;4993898;28;20034;-71
2021/10/30 01:43:50;;;;;;;7.93;1.90;;;;;;;;;;4992896;28;20027;-72
2021/10/30 01:46:17;;;;;;;4.70;1.80;;;;;;;;;;4995017;28;20045;-72
2021/10/30 01:48:43;;;;;;;10.48;1.83;;;;;;;;;;4993963;28;20432;-72
2021/10/30 01:51:09;;;;;;;4.65;2.00;;;;;;;;;;4994004;28;20058;-72
2021/10/30 01:53:35;;;;;;;4.95;2.10;;;;;;;;;;4993704;28;20030;-71
2021/10/30 01:56:01;;;;;;;2.45;1.73;;;;;;;;;;4994576;28;20037;-72
2021/10/30 01:58:27;;;;;;;3.13;1.83;;;;;;;;;;4981088;28;20031;-71
2021/10/30 02:00:57;;;;;;;4.65;1.67;;;;;;;;;;4975238;28;20038;-71
2021/10/30 02:03:24;;;;;;;3.72;1.70;;;;;;;;;;4975234;28;20046;-71
2021/10/30 02:05:52;;;;;;;3.30;1.98;;;;;;;;;;4975519;28;20462;-72
2021/10/30 02:08:19;;;;;;;2.20;1.70;;;;;;;;;;4975283;28;20034;-71
2021/10/30 02:10:45;;;;;;;4.47;1.98;;;;;;;;;;4973665;28;20054;-71
2021/10/30 02:13:11;;;;;;;3.35;1.92;;;;;;;;;;4990815;28;20392;-70
2021/10/30 02:15:38;;;;;;;8.57;1.92;;;;;;;;;;4994586;28;20102;-70
2021/10/30 02:18:04;;;;;;;4.80;1.85;;;;;;;;;;4994757;28;20117;-70
2021/10/30 02:20:30;;;;;;;7.35;2.15;;;;;;;;;;4994754;28;20042;-70
2021/10/30 02:22:56;;;;;;;3.38;1.63;;;;;;;;;;4994423;28;20761;-70
2021/10/30 02:25:22;;;;;;;6.97;1.90;;;;;;;;;;4994405;28;20026;-70
2021/10/30 02:27:49;;;;;;;4.68;1.80;;;;;;;;;;4994307;28;20113;-71
2021/10/30 02:30:15;;;;;;;5.28;1.80;;;;;;;;;;4994268;28;20497;-70
2021/10/30 02:32:43;;;;;;;7.57;1.90;;;;;;;;;;4994773;28;20026;-71
2021/10/30 02:35:09;;;;;;;4.25;1.67;;;;;;;;;;4994508;28;20026;-70
2021/10/30 02:37:35;;;;;;;2.13;1.77;;;;;;;;;;4994717;28;20029;-70
2021/10/30 02:40:01;;;;;;;3.25;1.67;;;;;;;;;;4994626;28;20027;-70
2021/10/30 02:42:27;;;;;;;3.97;1.83;;;;;;;;;;4994255;28;20053;-69
2021/10/30 02:44:53;;;;;;;2.25;1.35;;;;;;;;;;4989940;28;20062;-70
2021/10/30 02:47:19;;;;;;;3.58;1.55;;;;;;;;;;4974857;28;20040;-70
2021/10/30 02:49:45;;;;;;;3.65;2.20;;;;;;;;;;4975199;28;20031;-71
2021/10/30 02:52:11;;;;;;;5.43;1.77;;;;;;;;;;4973504;28;20031;-70
2021/10/30 02:54:37;;;;;;;7.80;1.83;;;;;;;;;;4974788;28;20035;-70
2021/10/30 02:57:03;;;;;;;4.18;1.65;;;;;;;;;;4975093;28;20034;-70
2021/10/30 02:59:29;;;;;;;4.45;1.83;;;;;;;;;;4974829;28;20042;-71
2021/10/30 03:01:55;;;;;;;3.05;1.85;;;;;;;;;;4992961;28;20034;-70
2021/10/30 03:04:21;;;;;;;4.10;1.63;;;;;;;;;;4992874;28;20057;-70
2021/10/30 03:06:47;;;;;;;2.67;1.70;;;;;;;;;;4997358;28;20477;-71
2021/10/30 03:09:13;;;;;;;3.97;1.80;;;;;;;;;;4997308;28;20384;-71
2021/10/30 03:11:39;;;;;;;3.47;1.77;;;;;;;;;;4997565;28;20069;-71
2021/10/30 03:14:05;;;;;;;7.50;1.52;;;;;;;;;;4997554;28;20022;-71
2021/10/30 03:16:31;;;;;;;7.40;1.90;;;;;;;;;;4997453;28;20097;-71
2021/10/30 03:18:57;;;;;;;6.93;1.55;;;;;;;;;;4995860;28;20433;-71
2021/10/30 03:21:24;;;;;;;2.25;1.55;;;;;;;;;;4995921;28;20049;-70
2021/10/30 03:23:50;;;;;;;4.63;1.67;;;;;;;;;;4996121;28;20477;-70
2021/10/30 03:26:16;;;;;;;2.10;1.58;;;;;;;;;;4997270;28;20106;-70
2021/10/30 03:28:42;;;;;;;9.43;1.85;;;;;;;;;;4997146;28;20122;-71
2021/10/30 03:31:08;;;;;;;3.97;2.05;;;;;;;;;;4997083;28;20505;-71
2021/10/30 03:33:34;;;;;;;2.92;1.50;;;;;;;;;;4997032;28;20046;-71
2021/10/30 03:36:00;;;;;;;2.13;1.35;;;;;;;;;;4996396;28;20030;-72
2021/10/30 03:38:27;;;;;;;5.35;1.73;;;;;;;;;;4996197;28;20097;-70
2021/10/30 03:40:53;;;;;;;4.88;1.60;;;;;;;;;;4996190;28;20037;-69
2021/10/30 03:43:19;;;;;;;3.97;1.80;;;;;;;;;;4996739;28;20021;-70
2021/10/30 03:45:45;;;;;;;10.25;1.58;;;;;;;;;;4995566;28;20039;-71
2021/10/30 03:48:11;;;;;;;3.90;1.63;;;;;;;;;;4996913;28;20654;-70
2021/10/30 03:50:38;;;;;;;4.22;1.38;;;;;;;;;;4996545;28;20018;-69
2021/10/30 03:53:04;;;;;;;4.45;1.80;;;;;;;;;;4996854;28;20026;-69
2021/10/30 03:55:30;;;;;;;4.45;1.45;;;;;;;;;;4988721;28;20026;-69
2021/10/30 03:57:57;;;;;;;7.68;1.83;;;;;;;;;;4977093;28;20054;-67
2021/10/30 04:00:23;;;;;;;3.10;1.58;;;;;;;;;;4977103;28;20082;-69
2021/10/30 04:02:49;;;;;;;6.63;1.60;;;;;;;;;;4976858;28;20023;-69
2021/10/30 04:05:15;;;;;;;5.50;1.80;;;;;;;;;;4976074;28;20077;-68
2021/10/30 04:07:41;;;;;;;1.92;1.52;;;;;;;;;;4976789;28;20131;-68
2021/10/30 04:10:07;;;;;;;2.60;1.50;;;;;;;;;;4976795;28;20072;-69
2021/10/30 04:12:34;;;;;;;5.10;1.70;;;;;;;;;;4988771;28;20474;-68
2021/10/30 04:14:59;;;;;;;3.78;1.48;;;;;;;;;;4996373;28;20076;-69
2021/10/30 04:17:25;;;;;;;2.83;1.65;;;;;;;;;;4996070;28;20109;-69
2021/10/30 04:19:51;;;;;;;4.15;1.73;;;;;;;;;;4996266;28;20535;-69
2021/10/30 04:22:17;;;;;;;4.97;1.40;;;;;;;;;;4996555;28;20034;-69
2021/10/30 04:24:43;;;;;;;7.32;1.58;;;;;;;;;;4995728;28;20053;-69
2021/10/30 04:27:19;;;;;;;2.50;1.65;;;;;;;;;;4995832;28;20031;-69
2021/10/30 04:29:45;;;;;;;2.72;1.70;;;;;;;;;;4995930;28;20588;-69
2021/10/30 04:32:13;;;;;;;2.58;1.70;;;;;;;;;;4995877;28;20552;-69
2021/10/30 04:34:48;;;;;;;3.15;1.70;;;;;;;;;;4996066;28;20041;-70
2021/10/30 04:37:17;;;;;;;3.80;1.60;;;;;;;;;;4994554;28;20020;-69
2021/10/30 04:39:45;;;;;;;7.18;1.48;;;;;;;;;;4995078;28;20097;-69
2021/10/30 04:42:11;;;;;;;1.70;1.52;;;;;;;;;;4993851;28;20061;-70
2021/10/30 04:44:37;;;;;;;2.45;1.40;;;;;;;;;;4994033;28;20378;-70
2021/10/30 04:47:03;;;;;;;3.83;1.70;;;;;;;;;;4995135;28;20125;-70
2021/10/30 04:49:29;;;;;;;3.45;1.75;;;;;;;;;;4995955;28;20026;-70
2021/10/30 04:51:55;;;;;;;4.20;1.58;;;;;;;;;;4994641;28;20073;-69
2021/10/30 04:54:21;;;;;;;3.78;1.45;;;;;;;;;;4995918;28;20050;-70
2021/10/30 04:56:47;;;;;;;3.30;1.83;;;;;;;;;;4995311;28;20035;-68
2021/10/30 04:59:13;;;;;;;6.75;1.60;;;;;;;;;;4995674;28;20058;-69
2021/10/30 05:01:39;;;;;;;4.20;1.70;;;;;;;;;;4995536;28;20093;-69
2021/10/30 05:04:05;;;;;;;2.33;1.80;;;;;;;;;;4994950;28;20117;-68
2021/10/30 05:06:31;;;;;;;3.95;1.48;;;;;;;;;;4995226;28;20026;-68
2021/10/30 05:08:57;;;;;;;2.88;1.60;;;;;;;;;;4994600;28;20037;-69
2021/10/30 05:11:23;;;;;;;2.47;1.48;;;;;;;;;;4994851;28;20028;-69
2021/10/30 05:13:49;;;;;;;4.72;1.40;;;;;;;;;;4995222;28;20061;-69
2021/10/30 05:16:15;;;;;;;2.05;1.60;;;;;;;;;;4995068;28;20019;-69
2021/10/30 05:18:41;;;;;;;2.33;1.70;;;;;;;;;;4993761;28;20466;-68
2021/10/30 05:21:07;;;;;;;3.85;1.30;;;;;;;;;;4994459;28;20035;-68
2021/10/30 05:23:37;;;;;;;5.68;1.60;;;;;;;;;;4995294;28;20458;-68
2021/10/30 05:26:03;;;;;;;7.28;1.58;;;;;;;;;;4994433;28;20053;-68
2021/10/30 05:28:30;;;;;;;3.08;1.25;;;;;;;;;;4994211;28;20045;-69
2021/10/30 05:30:55;;;;;;;6.47;1.60;;;;;;;;;;4993546;28;20500;-69
2021/10/30 05:33:22;;;;;;;4.03;1.70;;;;;;;;;;4995074;28;20502;-69
2021/10/30 05:35:48;;;;;;;6.35;1.70;;;;;;;;;;4993834;28;20030;-68
2021/10/30 05:38:14;;;;;;;7.32;1.35;;;;;;;;;;4994635;28;20441;-68
2021/10/30 05:40:40;;;;;;;7.72;1.60;;;;;;;;;;4994411;28;20539;-69
2021/10/30 05:43:07;;;;;;;6.30;2.10;;;;;;;;;;4994954;28;20022;-69
2021/10/30 05:45:33;;;;;;;5.55;1.92;;;;;;;;;;4995774;28;20026;-73
2021/10/30 05:47:59;;;;;;;6.72;1.90;;;;;;;;;;4994366;28;20454;-74
2021/10/30 05:50:25;;;;;;;3.17;1.98;;;;;;;;;;4996257;28;20027;-75
2021/10/30 05:52:51;;;;;;;8.75;1.70;;;;;;;;;;4997978;28;20101;-74
2021/10/30 05:55:21;;;;;;;18.60;2.35;;;;;;;;;;5000133;28;20022;-71
2021/10/30 05:57:47;;;;;;;14.57;2.30;;;;;;;;;;4995534;28;20038;-68
2021/10/30 06:00:13;;;;;;;33.20;2.22;;;;;;;;;;4993845;28;20058;-72
2021/10/30 06:02:39;;;;;;;42.67;2.33;;;;;;;;;;4996766;28;20030;-69
2021/10/30 06:05:09;;;;;;;11.50;1.67;;;;;;;;;;4993431;28;20038;-69
2021/10/30 06:07:35;;;;;;;34.60;2.45;;;;;;;;;;4994417;28;20054;-68
2021/10/30 06:10:01;;;;;;;14.48;2.17;;;;;;;;;;4994823;28;20030;-69
2021/10/30 06:12:27;;;;;;;10.48;1.70;;;;;;;;;;4994827;28;20018;-69
2021/10/30 06:14:53;;;;;;;10.15;2.20;;;;;;;;;;4991392;28;20057;-68
2021/10/30 06:17:19;;;;;;;21.20;1.92;;;;;;;;;;4992869;28;20027;-69
2021/10/30 06:19:45;;;;;;;9.70;1.95;;;;;;;;;;5001008;28;20037;-68
2021/10/30 06:22:11;;;;;;;10.40;1.90;;;;;;;;;;5007569;28;20432;-69
2021/10/30 06:24:38;;;;;;;9.52;1.92;;;;;;;;;;5005418;28;20105;-69
2021/10/30 06:27:05;;;;;;;5.25;1.40;;;;;;;;;;4994180;28;20049;-67
2021/10/30 06:29:31;;;;;;;5.47;1.67;;;;;;;;;;4996624;28;20022;-69
2021/10/30 06:31:57;;;;;;;9.85;1.70;;;;;;;;;;4993956;28;20030;-69
2021/10/30 06:34:23;;;;;;;5.63;1.67;;;;;;;;;;4993698;28;20117;-69
2021/10/30 06:36:49;;;;;;;5.90;1.90;;;;;;;;;;4994305;28;20022;-69
2021/10/30 06:39:15;;;;;;;4.22;1.73;;;;;;;;;;4995443;28;20057;-69
2021/10/30 06:41:41;;;;;;;4.60;1.73;;;;;;;;;;5003595;28;20129;-68
2021/10/30 06:44:07;;;;;;;11.88;1.58;;;;;;;;;;5011136;28;20022;-68
2021/10/30 06:46:33;;;;;;;7.85;1.58;;;;;;;;;;4997908;28;20029;-68
2021/10/30 06:49:00;;;;;;;8.38;1.95;;;;;;;;;;4996699;28;20109;-68
2021/10/30 06:51:26;;;;;;;8.55;2.08;;;;;;;;;;5000505;28;20029;-69
2021/10/30 06:53:52;;;;;;;4.47;1.92;;;;;;;;;;4995583;28;20085;-69
2021/10/30 06:56:19;;;;;;;7.97;1.73;;;;;;;;;;4995709;28;20069;-68
2021/10/30 06:58:45;;;;;;;2.63;1.67;;;;;;;;;;5008834;28;20018;-69
2021/10/30 07:01:17;;;;;;;4.20;1.80;;;;;;;;;;5011253;28;20455;-71
2021/10/30 07:03:44;;;;;;;6.50;1.70;;;;;;;;;;4998681;28;20552;-71
2021/10/30 07:06:10;;;;;;;12.77;1.48;;;;;;;;;;5002721;28;20570;-71
2021/10/30 07:08:36;;;;;;;11.55;2.05;;;;;;;;;;5004755;28;20117;-70
2021/10/30 07:11:02;;;;;;;4.40;1.67;;;;;;;;;;5004511;28;20054;-69
2021/10/30 07:13:28;;;;;;;6.95;1.85;;;;;;;;;;4997212;28;20034;-70
2021/10/30 07:15:54;;;;;;;6.25;1.70;;;;;;;;;;4997999;28;20019;-70
2021/10/30 07:18:21;;;;;;;6.00;1.52;;;;;;;;;;4999545;28;20041;-71
2021/10/30 07:20:48;;;;;;;7.07;1.77;;;;;;;;;;4997117;28;20113;-70
2021/10/30 07:23:16;;;;;;;13.85;1.95;;;;;;;;;;4996592;28;20022;-69
2021/10/30 07:25:42;;;;;;;8.88;1.98;;;;;;;;;;4995489;28;20037;-71
2021/10/30 07:28:08;;;;;;;6.35;1.60;;;;;;;;;;4994842;28;20027;-71
2021/10/30 07:30:34;;;;;;;12.90;1.65;;;;;;;;;;4996247;28;20035;-71
2021/10/30 07:33:00;;;;;;;10.98;1.70;;;;;;;;;;4996469;28;20061;-71
2021/10/30 07:35:27;;;;;;;20.52;2.05;;;;;;;;;;4994996;28;20094;-71
2021/10/30 07:37:58;;;;;;;7.07;2.00;;;;;;;;;;4996761;28;20022;-69
2021/10/30 07:40:25;;;;;;;4.45;1.85;;;;;;;;;;5003190;28;20052;-69
2021/10/30 07:42:51;;;;;;;2.30;1.70;;;;;;;;;;5003003;28;20045;-70
2021/10/30 07:45:17;;;;;;;6.50;2.00;;;;;;;;;;5004120;28;20046;-69
2021/10/30 07:47:43;;;;;;;3.60;1.67;;;;;;;;;;5010444;28;20050;-69
2021/10/30 07:50:09;;;;;;;6.75;2.00;;;;;;;;;;5009472;28;20076;-70
2021/10/30 07:52:35;;;;;;;4.32;2.10;;;;;;;;;;4994811;28;20054;-69
2021/10/30 07:55:01;;;;;;;5.28;2.13;;;;;;;;;;4994983;28;20034;-70
2021/10/30 07:57:27;;;;;;;5.63;1.92;;;;;;;;;;4997604;28;20046;-71
2021/10/30 07:59:53;;;;;;;3.85;2.08;;;;;;;;;;5003127;28;20060;-70
2021/10/30 08:02:20;;;;;;;7.18;2.50;;;;;;;;;;4997191;28;20541;-71
2021/10/30 08:04:46;;;;;;;4.13;1.77;;;;;;;;;;5011274;28;20054;-69
2021/10/30 08:07:13;;;;;;;10.65;2.30;;;;;;;;;;4996143;28;20026;-68
2021/10/30 08:09:40;;;;;;;6.88;2.53;;;;;;;;;;4995619;28;20022;-68
2021/10/30 08:12:06;;;;;;;3.03;2.22;;;;;;;;;;4994522;28;20031;-69
2021/10/30 08:14:32;;;;;;;7.22;2.40;;;;;;;;;;4995765;28;20029;-70
2021/10/30 08:16:58;;;;;;;5.20;2.00;;;;;;;;;;4995951;28;20027;-69
2021/10/30 08:19:24;;;;;;;4.68;2.38;;;;;;;;;;4995815;28;20022;-69
2021/10/30 08:21:50;;;;;;;8.40;2.30;;;;;;;;;;4995572;28;20036;-69
2021/10/30 08:24:16;;;;;;;7.70;2.40;;;;;;;;;;4995720;28;20026;-67
2021/10/30 08:26:42;;;;;;;5.97;2.72;;;;;;;;;;4994583;28;20018;-69
2021/10/30 08:29:08;;;;;;;9.82;2.25;;;;;;;;;;4995307;28;20030;-69
2021/10/30 08:31:34;;;;;;;6.68;2.35;;;;;;;;;;4995168;28;20027;-69
2021/10/30 08:34:00;;;;;;;9.57;3.00;;;;;;;;;;4986984;28;20390;-67
2021/10/30 08:36:27;;;;;;;6.47;2.13;;;;;;;;;;4983548;28;20023;-71
2021/10/30 08:38:54;;;;;;;8.27;2.40;;;;;;;;;;4983271;28;20477;-71
2021/10/30 08:41:20;;;;;;;10.93;2.13;;;;;;;;;;4987849;28;20066;-70
2021/10/30 08:43:48;;;;;;;5.28;2.17;;;;;;;;;;4990265;28;20019;-71
2021/10/30 08:46:14;;;;;;;7.60;2.30;;;;;;;;;;4985281;28;20096;-69
2021/10/30 08:48:41;;;;;;;6.22;2.20;;;;;;;;;;4982751;28;20033;-70
2021/10/30 08:51:07;;;;;;;15.18;2.28;;;;;;;;;;4979112;28;20046;-68
2021/10/30 08:53:33;;;;;;;11.00;2.30;;;;;;;;;;4981118;28;20019;-70
2021/10/30 08:56:03;;;;;;;4.75;2.13;;;;;;;;;;4982906;28;20034;-69
2021/10/30 08:58:29;;;;;;;10.95;2.47;;;;;;;;;;4987966;28;20023;-68
2021/10/30 09:00:57;;;;;;;10.52;2.33;;;;;;;;;;4977981;28;20030;-71
2021/10/30 09:03:23;;;;;;;10.27;2.08;;;;;;;;;;4987599;28;20030;-70
2021/10/30 09:05:50;;;;;;;13.40;2.90;;;;;;;;;;4975808;28;20034;-71
2021/10/30 09:08:17;;;;;;;5.55;2.45;;;;;;;;;;4975657;28;20023;-68
2021/10/30 09:10:49;;;;;;;24.33;3.05;;;;;;;;;;4994277;28;20073;-69
2021/10/30 09:13:15;;;;;;;17.02;2.47;;;;;;;;;;5004238;28;20029;-70
2021/10/30 09:15:43;;;;;;;13.40;2.53;;;;;;;;;;5010816;28;20034;-71
2021/10/30 09:18:19;;;;;;;12.88;2.65;;;;;;;;;;4996705;28;20473;-67
2021/10/30 09:20:49;;;;;;;17.65;3.00;;;;;;;;;;4994296;28;20402;-68
2021/10/30 09:23:20;;;;;;;26.00;3.13;;;;;;;;;;4992765;28;20065;-67
2021/10/30 09:25:55;;;;;;;20.13;3.03;;;;;;;;;;4994326;28;20117;-66
2021/10/30 09:28:21;;;;;;;17.40;3.53;;;;;;;;;;4993352;28;20057;-66
2021/10/30 09:30:54;;;;;;;23.30;3.10;;;;;;;;;;4992777;28;20060;-66
2021/10/30 09:33:20;;;;;;;33.67;3.38;;;;;;;;;;4994159;28;20505;-67
2021/10/30 09:35:47;;;;;;;23.13;2.88;;;;;;;;;;4993782;28;20031;-67
2021/10/30 09:38:25;;;;;;;18.88;2.95;;;;;;;;;;4993696;28;20033;-67
2021/10/30 09:40:51;;;;;;;19.42;2.70;;;;;;;;;;4997837;28;20405;-72
2021/10/30 09:43:18;;;;;;;25.02;2.75;;;;;;;;;;4992609;28;20042;-69
2021/10/30 09:45:45;;;;;;;19.13;2.67;;;;;;;;;;4992851;28;20021;-70
2021/10/30 09:48:11;;;;;;;25.38;3.33;;;;;;;;;;4993247;28;20345;-71
2021/10/30 09:50:38;;;;;;;39.72;3.25;;;;;;;;;;4984648;28;20022;-70
2021/10/30 09:53:23;;;;;;;28.63;3.10;;;;;;;;;;5007027;28;20461;-67
2021/10/30 09:55:53;;;;;;;22.77;2.90;;;;;;;;;;4993857;28;20429;-67
2021/10/30 09:58:36;;;;;;;36.78;3.92;;;;;;;;;;4992556;28;20042;-64
2021/10/30 10:01:04;;;;;;;31.02;3.28;;;;;;;;;;4993015;28;20109;-65
2021/10/30 10:03:31;;;;;;;45.70;3.33;;;;;;;;;;4990201;28;20038;-64
2021/10/30 10:05:57;;;;;;;36.88;3.60;;;;;;;;;;4990137;28;20026;-65
2021/10/30 10:08:25;;;;;;;23.30;2.85;;;;;;;;;;4992394;28;20426;-65
2021/10/30 10:10:52;;;;;;;22.17;2.60;;;;;;;;;;4990541;28;20061;-65
2021/10/30 10:13:19;;;;;;;14.75;2.85;;;;;;;;;;4988765;28;20023;-65
2021/10/30 10:15:46;;;;;;;18.33;2.83;;;;;;;;;;4993917;28;20022;-65
2021/10/30 10:18:12;;;;;;;10.48;2.50;;;;;;;;;;4995318;28;20058;-66
2021/10/30 10:20:38;;;;;;;27.20;3.00;;;;;;;;;;4994345;28;20121;-64
2021/10/30 10:23:04;;;;;;;19.73;2.50;;;;;;;;;;4995092;28;20122;-64
2021/10/30 10:25:32;;;;;;;11.57;2.80;;;;;;;;;;4994899;28;20029;-67
2021/10/30 10:28:20;;;;;;;17.52;2.97;;;;;;;;;;4994454;28;20073;-63
2021/10/30 10:30:53;;;;;;;12.57;2.70;;;;;;;;;;4994774;28;20022;-64
2021/10/30 10:33:19;;;;;;;15.50;2.72;;;;;;;;;;4996986;28;20022;-65
2021/10/30 10:36:03;;;;;;;12.88;2.35;;;;;;;;;;5000520;28;20065;-65
2021/10/30 10:38:48;;;;;;;11.77;2.15;;;;;;;;;;4995795;28;20046;-65
2021/10/30 10:41:37;;;;;;;9.25;2.40;;;;;;;;;;4994314;28;20477;-65
2021/10/30 10:44:10;;;;;;;11.68;3.13;;;;;;;;;;4993997;28;20026;-64
2021/10/30 10:46:40;;;;;;;27.77;2.75;;;;;;;;;;4994752;28;20102;-65
2021/10/30 10:49:16;;;;;;;11.02;2.60;;;;;;;;;;4994275;28;20027;-66
2021/10/30 10:51:52;;;;;;;15.63;2.28;;;;;;;;;;4995307;28;20385;-71
2021/10/30 10:54:17;;;;;;;11.13;2.70;;;;;;;;;;4993354;28;20026;-67
2021/10/30 10:56:56;;;;;;;8.50;2.72;;;;;;;;;;4993474;28;20081;-66
2021/10/30 10:59:39;;;;;;;23.05;2.78;;;;;;;;;;4994419;28;20030;-67
2021/10/30 11:02:19;;;;;;;15.57;2.50;;;;;;;;;;4994207;28;20085;-67
2021/10/30 11:05:15;;;;;;;18.23;2.83;;;;;;;;;;5005757;28;20045;-66
2021/10/30 11:07:50;;;;;;;20.80;2.47;;;;;;;;;;4987743;28;20038;-66
2021/10/30 11:10:17;;;;;;;22.95;2.92;;;;;;;;;;5015832;28;20037;-67
2021/10/30 11:12:43;;;;;;;12.73;2.22;;;;;;;;;;5013485;28;20028;-68
2021/10/30 11:15:15;;;;;;;15.75;2.67;;;;;;;;;;5003109;28;20026;-70
2021/10/30 11:17:51;;;;;;;17.02;2.40;;;;;;;;;;5008121;28;20133;-68
2021/10/30 11:20:18;;;;;;;8.48;2.25;;;;;;;;;;5006442;28;20034;-67
2021/10/30 11:22:59;;;;;;;21.50;2.63;;;;;;;;;;5009897;28;20030;-69
2021/10/30 11:25:25;;;;;;;19.23;2.45;;;;;;;;;;5006384;28;20026;-69
2021/10/30 11:27:52;;;;;;;6.57;1.90;;;;;;;;;;5010078;28;20033;-70
2021/10/30 11:30:30;;;;;;;15.77;2.40;;;;;;;;;;5004938;28;20025;-68
2021/10/30 11:32:59;;;;;;;24.08;2.70;;;;;;;;;;4994207;28;20056;-68
2021/10/30 11:35:25;;;;;;;9.68;2.20;;;;;;;;;;5002687;28;20037;-67
2021/10/30 11:37:51;;;;;;;17.13;2.05;;;;;;;;;;5001610;28;20030;-68
2021/10/30 11:40:17;;;;;;;16.13;2.03;;;;;;;;;;4995021;28;20062;-67
2021/10/30 11:42:43;;;;;;;11.07;1.60;;;;;;;;;;5003092;28;20023;-69
2021/10/30 11:45:09;;;;;;;15.50;2.15;;;;;;;;;;5005155;28;20077;-68
2021/10/30 11:47:35;;;;;;;7.72;2.20;;;;;;;;;;5004827;28;20038;-68
2021/10/30 11:50:07;;;;;;;6.22;2.03;;;;;;;;;;5007172;28;20054;-68
2021/10/30 11:52:32;;;;;;;7.90;2.45;;;;;;;;;;5005358;28;20025;-69
2021/10/30 11:54:59;;;;;;;16.50;1.80;;;;;;;;;;5006914;28;20018;-67
2021/10/30 11:57:25;;;;;;;9.82;1.98;;;;;;;;;;5005497;28;20029;-68
2021/10/30 11:59:58;;;;;;;5.47;1.75;;;;;;;;;;5005656;28;20030;-67
2021/10/30 12:02:24;;;;;;;5.72;1.70;;;;;;;;;;4995120;28;20037;-68
2021/10/30 12:04:50;;;;;;;15.45;1.88;;;;;;;;;;5004310;28;20042;-69
2021/10/30 12:07:16;;;;;;;4.05;1.95;;;;;;;;;;5001703;28;20046;-69
2021/10/30 12:09:43;;;;;;;5.20;1.60;;;;;;;;;;5003554;28;20363;-69
2021/10/30 12:12:13;;;;;;;8.40;2.17;;;;;;;;;;5005454;28;20040;-68
2021/10/30 12:14:39;;;;;;;4.95;2.00;;;;;;;;;;5004048;28;20505;-68
2021/10/30 12:17:06;;;;;;;4.65;1.67;;;;;;;;;;5008597;28;20034;-68
2021/10/30 12:19:33;;;;;;;7.28;1.63;;;;;;;;;;5000454;28;20046;-68
2021/10/30 12:22:22;;;;;;;13.15;1.70;;;;;;;;;;5006520;28;20085;-68
2021/10/30 12:24:59;;;;;;;7.28;1.75;;;;;;;;;;4983575;28;20033;-67
2021/10/30 12:27:25;;;;;;;7.72;1.65;;;;;;;;;;4976441;28;20097;-67
2021/10/30 12:29:50;;;;;;;4.53;1.80;;;;;;;;;;4976831;28;20414;-69
2021/10/30 12:32:17;;;;;;;3.55;1.83;;;;;;;;;;4976446;28;20038;-68
2021/10/30 12:34:57;;;;;;;2.78;1.80;;;;;;;;;;4976069;28;20026;-68
2021/10/30 12:37:25;;;;;;;7.68;1.92;;;;;;;;;;4974299;28;20034;-68
2021/10/30 12:39:56;;;;;;;8.27;1.90;;;;;;;;;;4974455;28;20379;-68
2021/10/30 12:42:22;;;;;;;8.82;1.67;;;;;;;;;;4974975;28;20034;-68
2021/10/30 12:44:50;;;;;;;5.60;1.75;;;;;;;;;;4976026;28;20023;-68
2021/10/30 12:47:17;;;;;;;10.20;1.95;;;;;;;;;;4975932;28;20078;-68
2021/10/30 12:49:45;;;;;;;5.28;1.75;;;;;;;;;;4989210;28;20041;-68
2021/10/30 12:52:13;;;;;;;5.18;1.60;;;;;;;;;;4994978;28;20022;-68
2021/10/30 12:54:43;;;;;;;5.57;1.70;;;;;;;;;;4994348;28;20433;-68
2021/10/30 12:57:21;;;;;;;1.67;1.40;;;;;;;;;;4993500;28;20436;-68
2021/10/30 12:59:58;;;;;;;6.88;1.40;;;;;;;;;;4995198;28;20408;-67
2021/10/30 13:02:25;;;;;;;5.30;1.30;;;;;;;;;;4994563;28;20034;-67
2021/10/30 13:04:52;;;;;;;3.15;1.55;;;;;;;;;;4994239;28;20061;-66
2021/10/30 13:07:19;;;;;;;9.15;1.92;;;;;;;;;;4995036;28;20022;-67
2021/10/30 13:09:53;;;;;;;6.40;1.50;;;;;;;;;;4993321;28;20022;-66
2021/10/30 13:12:19;;;;;;;5.63;1.50;;;;;;;;;;4994649;28;20080;-67
2021/10/30 13:14:45;;;;;;;4.10;1.60;;;;;;;;;;4994906;28;20425;-66
2021/10/30 13:17:11;;;;;;;3.75;1.70;;;;;;;;;;4995151;28;20041;-66
2021/10/30 13:19:37;;;;;;;1.98;1.42;;;;;;;;;;4994255;28;20050;-68
2021/10/30 13:22:03;;;;;;;3.70;1.73;;;;;;;;;;4994982;28;20052;-67
2021/10/30 13:24:29;;;;;;;2.15;1.38;;;;;;;;;;4993348;28;20033;-67
2021/10/30 13:26:55;;;;;;;3.85;1.67;;;;;;;;;;4993790;28;20026;-67
2021/10/30 13:29:21;;;;;;;4.55;1.60;;;;;;;;;;4993933;28;20470;-67
2021/10/30 13:31:47;;;;;;;2.45;1.70;;;;;;;;;;4992757;28;20488;-67
2021/10/30 13:34:14;;;;;;;5.05;1.77;;;;;;;;;;4994090;28;20049;-67
2021/10/30 13:36:41;;;;;;;1.85;1.60;;;;;;;;;;4994324;28;20033;-68
2021/10/30 13:39:07;;;;;;;3.28;1.80;;;;;;;;;;4993377;28;20022;-68
2021/10/30 13:41:33;;;;;;;46.38;3.03;;;;;;;;;;4994375;28;20077;-67
2021/10/30 13:44:02;;;;;;;23.02;2.40;;;;;;;;;;4994662;28;20076;-68
2021/10/30 13:46:28;;;;;;;100.97;4.10;;;;;;;;;;4997142;28;20033;-67
2021/10/30 13:48:54;;;;;;;41.47;2.95;;;;;;;;;;5006672;28;20023;-67
2021/10/30 13:51:21;;;;;;;39.20;3.03;;;;;;;;;;4994331;28;20030;-67
2021/10/30 13:53:47;;;;;;;19.30;2.10;;;;;;;;;;4994748;28;20026;-68
2021/10/30 13:56:13;;;;;;;30.13;2.40;;;;;;;;;;4994529;28;20141;-67
2021/10/30 13:58:40;;;;;;;13.82;1.90;;;;;;;;;;4993923;28;20406;-67
2021/10/30 14:01:06;;;;;;;22.10;1.90;;;;;;;;;;4992927;28;20035;-68
2021/10/30 14:03:33;;;;;;;24.42;2.30;;;;;;;;;;4993804;28;20046;-67
2021/10/30 14:05:59;;;;;;;17.77;1.77;;;;;;;;;;4993634;28;20704;-70
2021/10/30 14:08:25;;;;;;;16.83;2.17;;;;;;;;;;4993839;28;20034;-67
2021/10/30 14:10:51;;;;;;;16.05;2.40;;;;;;;;;;4992496;28;20030;-68
2021/10/30 14:13:17;;;;;;;11.90;1.73;;;;;;;;;;4993275;28;20026;-68
2021/10/30 14:15:43;;;;;;;18.90;2.42;;;;;;;;;;4994044;28;20034;-68
2021/10/30 14:18:09;;;;;;;20.38;2.10;;;;;;;;;;4993389;28;20101;-67
2021/10/30 14:20:35;;;;;;;23.85;1.83;;;;;;;;;;4993637;28;20030;-67
2021/10/30 14:23:01;;;;;;;26.95;2.17;;;;;;;;;;4992514;28;20037;-68
2021/10/30 14:25:27;;;;;;;14.68;2.10;;;;;;;;;;4993323;28;20027;-67
2021/10/30 14:27:53;;;;;;;28.52;2.40;;;;;;;;;;4993392;28;20109;-67
2021/10/30 14:30:19;;;;;;;12.38;1.90;;;;;;;;;;4992835;28;20030;-67
2021/10/30 14:32:45;;;;;;;20.35;1.92;;;;;;;;;;4993330;28;20470;-67
2021/10/30 14:35:10;;;;;;;9.95;2.22;;;;;;;;;;4993083;28;20031;-67
2021/10/30 14:37:37;;;;;;;5.18;1.42;;;;;;;;;;4993386;28;20028;-67
2021/10/30 14:40:03;;;;;;;14.35;1.60;;;;;;;;;;4993083;28;20038;-67